sensor_id;sensor_type;location;lat;lon;timestamp;P1;durP1;ratioP1;P2;durP2;ratioP2
15567;SDS011;7885;42.596;23.044;2022-12-07T00:01:14;12.10;;;5.40;;
15567;SDS011;7885;42.596;23.044;2022-12-07T00:03:43;8.63;;;5.80;;
15567;SDS011;7885;42.596;23.044;2022-12-07T00:06:13;10.03;;;5.17;;
15567;SDS011;7885;42.596;23.044;2022-12-07T00:08:41;11.33;;;4.63;;
15567;SDS011;7885;42.596;23.044;2022-12-07T00:11:09;9.67;;;4.90;;
15567;SDS011;7885;42.596;23.044;2022-12-07T00:13:38;6.53;;;4.40;;
15567;SDS011;7885;42.596;23.044;2022-12-07T00:16:06;10.90;;;4.90;;
15567;SDS011;7885;42.596;23.044;2022-12-07T00:18:34;11.80;;;6.70;;
15567;SDS011;7885;42.596;23.044;2022-12-07T00:21:01;14.10;;;6.53;;
15567;SDS011;7885;42.596;23.044;2022-12-07T00:23:31;8.63;;;4.97;;
15567;SDS011;7885;42.596;23.044;2022-12-07T00:26:02;8.30;;;5.13;;
15567;SDS011;7885;42.596;23.044;2022-12-07T00:28:30;7.07;;;5.10;;
15567;SDS011;7885;42.596;23.044;2022-12-07T00:30:59;7.40;;;5.50;;
15567;SDS011;7885;42.596;23.044;2022-12-07T00:33:30;6.67;;;5.37;;
15567;SDS011;7885;42.596;23.044;2022-12-07T00:35:57;6.67;;;4.77;;
15567;SDS011;7885;42.596;23.044;2022-12-07T00:38:27;10.07;;;4.83;;
15567;SDS011;7885;42.596;23.044;2022-12-07T00:40:56;7.53;;;4.47;;
15567;SDS011;7885;42.596;23.044;2022-12-07T00:43:24;9.33;;;4.70;;
15567;SDS011;7885;42.596;23.044;2022-12-07T00:45:51;10.43;;;4.77;;
15567;SDS011;7885;42.596;23.044;2022-12-07T00:48:19;7.13;;;4.63;;
15567;SDS011;7885;42.596;23.044;2022-12-07T00:50:46;7.73;;;4.43;;
15567;SDS011;7885;42.596;23.044;2022-12-07T00:53:13;8.07;;;4.50;;
15567;SDS011;7885;42.596;23.044;2022-12-07T00:55:41;8.43;;;4.67;;
15567;SDS011;7885;42.596;23.044;2022-12-07T00:58:09;7.87;;;4.77;;
15567;SDS011;7885;42.596;23.044;2022-12-07T01:00:37;8.80;;;5.00;;
15567;SDS011;7885;42.596;23.044;2022-12-07T01:03:06;8.77;;;5.17;;
15567;SDS011;7885;42.596;23.044;2022-12-07T01:05:34;8.77;;;5.20;;
15567;SDS011;7885;42.596;23.044;2022-12-07T01:08:01;7.07;;;4.77;;
15567;SDS011;7885;42.596;23.044;2022-12-07T01:10:28;10.10;;;5.10;;
15567;SDS011;7885;42.596;23.044;2022-12-07T01:12:56;9.17;;;4.80;;
15567;SDS011;7885;42.596;23.044;2022-12-07T01:15:25;8.00;;;5.23;;
15567;SDS011;7885;42.596;23.044;2022-12-07T01:17:52;7.77;;;5.00;;
15567;SDS011;7885;42.596;23.044;2022-12-07T01:20:20;7.20;;;4.83;;
15567;SDS011;7885;42.596;23.044;2022-12-07T01:22:47;7.00;;;4.97;;
15567;SDS011;7885;42.596;23.044;2022-12-07T01:25:14;7.53;;;4.87;;
15567;SDS011;7885;42.596;23.044;2022-12-07T01:27:41;7.90;;;4.73;;
15567;SDS011;7885;42.596;23.044;2022-12-07T01:30:09;8.63;;;5.10;;
15567;SDS011;7885;42.596;23.044;2022-12-07T01:32:38;8.50;;;4.60;;
15567;SDS011;7885;42.596;23.044;2022-12-07T01:35:05;8.50;;;5.20;;
15567;SDS011;7885;42.596;23.044;2022-12-07T01:37:35;7.87;;;4.57;;
15567;SDS011;7885;42.596;23.044;2022-12-07T01:40:03;6.87;;;4.57;;
15567;SDS011;7885;42.596;23.044;2022-12-07T01:42:31;11.77;;;4.90;;
15567;SDS011;7885;42.596;23.044;2022-12-07T01:48:04;6.73;;;4.47;;
15567;SDS011;7885;42.596;23.044;2022-12-07T01:50:33;9.60;;;4.53;;
15567;SDS011;7885;42.596;23.044;2022-12-07T01:53:02;8.37;;;4.40;;
15567;SDS011;7885;42.596;23.044;2022-12-07T01:55:31;8.33;;;4.17;;
15567;SDS011;7885;42.596;23.044;2022-12-07T01:57:58;8.07;;;4.57;;
15567;SDS011;7885;42.596;23.044;2022-12-07T02:00:25;14.23;;;6.40;;
15567;SDS011;7885;42.596;23.044;2022-12-07T02:02:53;12.47;;;6.33;;
15567;SDS011;7885;42.596;23.044;2022-12-07T02:05:25;10.40;;;6.07;;
15567;SDS011;7885;42.596;23.044;2022-12-07T02:07:53;12.23;;;6.07;;
15567;SDS011;7885;42.596;23.044;2022-12-07T02:10:23;17.47;;;8.33;;
15567;SDS011;7885;42.596;23.044;2022-12-07T02:12:52;9.40;;;5.40;;
15567;SDS011;7885;42.596;23.044;2022-12-07T02:15:22;8.33;;;4.60;;
15567;SDS011;7885;42.596;23.044;2022-12-07T02:17:57;11.13;;;5.80;;
15567;SDS011;7885;42.596;23.044;2022-12-07T02:20:33;13.53;;;6.90;;
15567;SDS011;7885;42.596;23.044;2022-12-07T02:23:10;18.53;;;7.97;;
15567;SDS011;7885;42.596;23.044;2022-12-07T02:25:57;12.90;;;6.33;;
15567;SDS011;7885;42.596;23.044;2022-12-07T02:28:50;12.27;;;4.80;;
15567;SDS011;7885;42.596;23.044;2022-12-07T02:31:27;8.47;;;4.57;;
15567;SDS011;7885;42.596;23.044;2022-12-07T02:33:57;8.90;;;4.73;;
15567;SDS011;7885;42.596;23.044;2022-12-07T02:36:32;12.93;;;5.30;;
15567;SDS011;7885;42.596;23.044;2022-12-07T02:39:06;8.93;;;4.73;;
15567;SDS011;7885;42.596;23.044;2022-12-07T02:41:42;9.30;;;5.43;;
15567;SDS011;7885;42.596;23.044;2022-12-07T02:44:14;12.40;;;5.60;;
15567;SDS011;7885;42.596;23.044;2022-12-07T02:46:53;9.93;;;4.63;;
15567;SDS011;7885;42.596;23.044;2022-12-07T02:49:23;5.73;;;4.40;;
15567;SDS011;7885;42.596;23.044;2022-12-07T02:51:52;8.60;;;4.43;;
15567;SDS011;7885;42.596;23.044;2022-12-07T02:54:20;10.70;;;4.60;;
15567;SDS011;7885;42.596;23.044;2022-12-07T02:56:49;9.93;;;4.73;;
15567;SDS011;7885;42.596;23.044;2022-12-07T02:59:22;7.20;;;4.90;;
15567;SDS011;7885;42.596;23.044;2022-12-07T03:01:59;6.53;;;4.90;;
15567;SDS011;7885;42.596;23.044;2022-12-07T03:04:41;7.40;;;4.20;;
15567;SDS011;7885;42.596;23.044;2022-12-07T03:07:11;7.83;;;4.60;;
15567;SDS011;7885;42.596;23.044;2022-12-07T03:09:51;6.33;;;4.70;;
15567;SDS011;7885;42.596;23.044;2022-12-07T03:12:27;7.33;;;4.40;;
15567;SDS011;7885;42.596;23.044;2022-12-07T03:15:01;11.53;;;7.00;;
15567;SDS011;7885;42.596;23.044;2022-12-07T03:17:32;10.87;;;7.47;;
15567;SDS011;7885;42.596;23.044;2022-12-07T03:20:04;10.67;;;7.23;;
15567;SDS011;7885;42.596;23.044;2022-12-07T03:22:34;9.53;;;6.40;;
15567;SDS011;7885;42.596;23.044;2022-12-07T03:25:05;12.67;;;6.30;;
15567;SDS011;7885;42.596;23.044;2022-12-07T03:27:35;9.03;;;5.47;;
15567;SDS011;7885;42.596;23.044;2022-12-07T03:30:08;11.17;;;5.53;;
15567;SDS011;7885;42.596;23.044;2022-12-07T03:32:40;7.33;;;5.30;;
15567;SDS011;7885;42.596;23.044;2022-12-07T03:35:12;6.50;;;5.00;;
15567;SDS011;7885;42.596;23.044;2022-12-07T03:37:46;9.17;;;5.33;;
15567;SDS011;7885;42.596;23.044;2022-12-07T03:40:19;7.50;;;5.10;;
15567;SDS011;7885;42.596;23.044;2022-12-07T03:42:50;5.50;;;4.50;;
15567;SDS011;7885;42.596;23.044;2022-12-07T03:45:20;12.30;;;4.60;;
15567;SDS011;7885;42.596;23.044;2022-12-07T03:51:18;8.87;;;5.43;;
15567;SDS011;7885;42.596;23.044;2022-12-07T03:53:49;7.47;;;4.13;;
15567;SDS011;7885;42.596;23.044;2022-12-07T03:56:21;6.77;;;5.10;;
15567;SDS011;7885;42.596;23.044;2022-12-07T03:58:49;8.13;;;4.83;;
15567;SDS011;7885;42.596;23.044;2022-12-07T04:01:19;14.07;;;6.00;;
15567;SDS011;7885;42.596;23.044;2022-12-07T04:03:46;11.30;;;6.20;;
15567;SDS011;7885;42.596;23.044;2022-12-07T04:06:13;14.17;;;7.77;;
15567;SDS011;7885;42.596;23.044;2022-12-07T04:08:40;8.93;;;6.13;;
15567;SDS011;7885;42.596;23.044;2022-12-07T04:11:07;10.37;;;6.03;;
15567;SDS011;7885;42.596;23.044;2022-12-07T04:13:34;7.73;;;4.87;;
15567;SDS011;7885;42.596;23.044;2022-12-07T04:16:22;7.40;;;4.93;;
15567;SDS011;7885;42.596;23.044;2022-12-07T04:18:49;8.90;;;5.23;;
15567;SDS011;7885;42.596;23.044;2022-12-07T04:21:15;6.67;;;5.10;;
15567;SDS011;7885;42.596;23.044;2022-12-07T04:23:42;9.67;;;5.53;;
15567;SDS011;7885;42.596;23.044;2022-12-07T04:26:09;8.60;;;5.77;;
15567;SDS011;7885;42.596;23.044;2022-12-07T04:28:36;9.03;;;5.43;;
15567;SDS011;7885;42.596;23.044;2022-12-07T04:31:03;8.37;;;5.33;;
15567;SDS011;7885;42.596;23.044;2022-12-07T04:33:31;14.60;;;10.93;;
15567;SDS011;7885;42.596;23.044;2022-12-07T04:35:58;12.10;;;8.00;;
15567;SDS011;7885;42.596;23.044;2022-12-07T04:38:25;11.73;;;6.70;;
15567;SDS011;7885;42.596;23.044;2022-12-07T04:40:52;9.43;;;5.33;;
15567;SDS011;7885;42.596;23.044;2022-12-07T04:43:18;9.83;;;6.17;;
15567;SDS011;7885;42.596;23.044;2022-12-07T04:45:46;9.57;;;5.50;;
15567;SDS011;7885;42.596;23.044;2022-12-07T04:48:13;9.50;;;5.67;;
15567;SDS011;7885;42.596;23.044;2022-12-07T04:50:41;9.87;;;6.27;;
15567;SDS011;7885;42.596;23.044;2022-12-07T04:53:08;10.33;;;5.87;;
15567;SDS011;7885;42.596;23.044;2022-12-07T04:55:35;10.50;;;5.50;;
15567;SDS011;7885;42.596;23.044;2022-12-07T04:58:02;13.47;;;5.80;;
15567;SDS011;7885;42.596;23.044;2022-12-07T05:00:29;12.07;;;6.03;;
15567;SDS011;7885;42.596;23.044;2022-12-07T05:02:56;13.20;;;5.97;;
15567;SDS011;7885;42.596;23.044;2022-12-07T05:05:23;10.03;;;6.50;;
15567;SDS011;7885;42.596;23.044;2022-12-07T05:07:51;9.20;;;5.30;;
15567;SDS011;7885;42.596;23.044;2022-12-07T05:10:18;13.40;;;6.30;;
15567;SDS011;7885;42.596;23.044;2022-12-07T05:12:45;12.77;;;6.27;;
15567;SDS011;7885;42.596;23.044;2022-12-07T05:15:12;11.97;;;5.33;;
15567;SDS011;7885;42.596;23.044;2022-12-07T05:17:40;11.63;;;5.83;;
15567;SDS011;7885;42.596;23.044;2022-12-07T05:20:07;9.77;;;4.60;;
15567;SDS011;7885;42.596;23.044;2022-12-07T05:22:35;7.67;;;5.40;;
15567;SDS011;7885;42.596;23.044;2022-12-07T05:25:03;8.77;;;5.17;;
15567;SDS011;7885;42.596;23.044;2022-12-07T05:27:30;9.47;;;6.67;;
15567;SDS011;7885;42.596;23.044;2022-12-07T05:29:57;10.23;;;5.43;;
15567;SDS011;7885;42.596;23.044;2022-12-07T05:32:24;8.90;;;5.90;;
15567;SDS011;7885;42.596;23.044;2022-12-07T05:34:51;9.47;;;5.53;;
15567;SDS011;7885;42.596;23.044;2022-12-07T05:37:19;11.73;;;7.20;;
15567;SDS011;7885;42.596;23.044;2022-12-07T05:39:46;7.57;;;5.93;;
15567;SDS011;7885;42.596;23.044;2022-12-07T05:42:15;12.37;;;6.83;;
15567;SDS011;7885;42.596;23.044;2022-12-07T05:44:43;10.07;;;7.53;;
15567;SDS011;7885;42.596;23.044;2022-12-07T05:47:11;10.07;;;7.60;;
15567;SDS011;7885;42.596;23.044;2022-12-07T05:49:38;10.87;;;7.37;;
15567;SDS011;7885;42.596;23.044;2022-12-07T05:52:05;14.80;;;9.70;;
15567;SDS011;7885;42.596;23.044;2022-12-07T05:54:32;12.60;;;9.17;;
15567;SDS011;7885;42.596;23.044;2022-12-07T05:56:59;12.57;;;7.67;;
15567;SDS011;7885;42.596;23.044;2022-12-07T05:59:27;12.53;;;7.10;;
15567;SDS011;7885;42.596;23.044;2022-12-07T06:01:54;10.53;;;6.80;;
15567;SDS011;7885;42.596;23.044;2022-12-07T06:04:23;13.63;;;7.37;;
15567;SDS011;7885;42.596;23.044;2022-12-07T06:06:50;8.47;;;5.90;;
15567;SDS011;7885;42.596;23.044;2022-12-07T06:09:18;7.60;;;6.13;;
15567;SDS011;7885;42.596;23.044;2022-12-07T06:11:45;10.43;;;6.63;;
15567;SDS011;7885;42.596;23.044;2022-12-07T06:14:30;7.03;;;6.33;;
15567;SDS011;7885;42.596;23.044;2022-12-07T06:16:58;10.90;;;7.73;;
15567;SDS011;7885;42.596;23.044;2022-12-07T06:19:24;15.40;;;9.27;;
15567;SDS011;7885;42.596;23.044;2022-12-07T06:21:52;10.67;;;8.17;;
15567;SDS011;7885;42.596;23.044;2022-12-07T06:24:19;14.17;;;10.73;;
15567;SDS011;7885;42.596;23.044;2022-12-07T06:26:46;11.93;;;9.20;;
15567;SDS011;7885;42.596;23.044;2022-12-07T06:29:13;9.93;;;7.10;;
15567;SDS011;7885;42.596;23.044;2022-12-07T06:31:41;12.93;;;8.77;;
15567;SDS011;7885;42.596;23.044;2022-12-07T06:34:09;11.53;;;7.50;;
15567;SDS011;7885;42.596;23.044;2022-12-07T06:36:37;11.37;;;8.50;;
15567;SDS011;7885;42.596;23.044;2022-12-07T06:39:04;9.87;;;6.53;;
15567;SDS011;7885;42.596;23.044;2022-12-07T06:41:32;8.80;;;6.20;;
15567;SDS011;7885;42.596;23.044;2022-12-07T06:43:59;8.30;;;6.40;;
15567;SDS011;7885;42.596;23.044;2022-12-07T06:46:26;9.97;;;7.13;;
15567;SDS011;7885;42.596;23.044;2022-12-07T06:48:54;12.80;;;6.90;;
15567;SDS011;7885;42.596;23.044;2022-12-07T06:51:21;11.30;;;7.27;;
15567;SDS011;7885;42.596;23.044;2022-12-07T06:53:48;9.37;;;7.17;;
15567;SDS011;7885;42.596;23.044;2022-12-07T06:56:15;11.77;;;6.23;;
15567;SDS011;7885;42.596;23.044;2022-12-07T06:58:42;32.97;;;18.37;;
15567;SDS011;7885;42.596;23.044;2022-12-07T07:01:09;25.37;;;15.37;;
15567;SDS011;7885;42.596;23.044;2022-12-07T07:03:37;17.13;;;11.10;;
15567;SDS011;7885;42.596;23.044;2022-12-07T07:06:06;14.30;;;9.50;;
15567;SDS011;7885;42.596;23.044;2022-12-07T07:08:33;15.83;;;9.90;;
15567;SDS011;7885;42.596;23.044;2022-12-07T07:11:00;13.03;;;9.30;;
15567;SDS011;7885;42.596;23.044;2022-12-07T07:13:27;12.93;;;8.70;;
15567;SDS011;7885;42.596;23.044;2022-12-07T07:15:54;16.33;;;10.10;;
15567;SDS011;7885;42.596;23.044;2022-12-07T07:18:21;13.30;;;9.03;;
15567;SDS011;7885;42.596;23.044;2022-12-07T07:20:48;14.03;;;7.53;;
15567;SDS011;7885;42.596;23.044;2022-12-07T07:23:17;12.13;;;8.30;;
15567;SDS011;7885;42.596;23.044;2022-12-07T07:25:44;12.70;;;7.27;;
15567;SDS011;7885;42.596;23.044;2022-12-07T07:28:12;13.00;;;7.30;;
15567;SDS011;7885;42.596;23.044;2022-12-07T07:30:39;16.87;;;9.03;;
15567;SDS011;7885;42.596;23.044;2022-12-07T07:33:06;12.40;;;7.53;;
15567;SDS011;7885;42.596;23.044;2022-12-07T07:35:34;15.50;;;8.07;;
15567;SDS011;7885;42.596;23.044;2022-12-07T07:38:01;13.23;;;7.33;;
15567;SDS011;7885;42.596;23.044;2022-12-07T07:40:29;9.97;;;6.40;;
15567;SDS011;7885;42.596;23.044;2022-12-07T07:42:56;9.77;;;6.03;;
15567;SDS011;7885;42.596;23.044;2022-12-07T07:45:24;11.87;;;7.07;;
15567;SDS011;7885;42.596;23.044;2022-12-07T07:47:51;12.07;;;7.20;;
15567;SDS011;7885;42.596;23.044;2022-12-07T07:50:18;18.93;;;9.03;;
15567;SDS011;7885;42.596;23.044;2022-12-07T07:52:46;40.83;;;22.87;;
15567;SDS011;7885;42.596;23.044;2022-12-07T07:55:13;16.97;;;9.30;;
15567;SDS011;7885;42.596;23.044;2022-12-07T07:57:41;17.60;;;8.87;;
15567;SDS011;7885;42.596;23.044;2022-12-07T08:00:10;9.87;;;5.43;;
15567;SDS011;7885;42.596;23.044;2022-12-07T08:02:39;6.97;;;5.10;;
15567;SDS011;7885;42.596;23.044;2022-12-07T08:05:08;10.40;;;5.47;;
15567;SDS011;7885;42.596;23.044;2022-12-07T08:07:35;9.87;;;6.00;;
15567;SDS011;7885;42.596;23.044;2022-12-07T08:10:02;11.03;;;6.17;;
15567;SDS011;7885;42.596;23.044;2022-12-07T08:12:29;7.10;;;4.77;;
15567;SDS011;7885;42.596;23.044;2022-12-07T08:14:58;7.07;;;4.00;;
15567;SDS011;7885;42.596;23.044;2022-12-07T08:17:24;8.30;;;4.10;;
15567;SDS011;7885;42.596;23.044;2022-12-07T08:19:52;8.03;;;4.10;;
15567;SDS011;7885;42.596;23.044;2022-12-07T08:22:19;6.23;;;4.50;;
15567;SDS011;7885;42.596;23.044;2022-12-07T08:24:45;6.10;;;4.00;;
15567;SDS011;7885;42.596;23.044;2022-12-07T08:27:12;8.43;;;4.53;;
15567;SDS011;7885;42.596;23.044;2022-12-07T08:29:39;6.90;;;4.30;;
15567;SDS011;7885;42.596;23.044;2022-12-07T08:32:07;7.23;;;4.67;;
15567;SDS011;7885;42.596;23.044;2022-12-07T08:34:34;8.33;;;4.73;;
15567;SDS011;7885;42.596;23.044;2022-12-07T08:37:01;5.83;;;3.90;;
15567;SDS011;7885;42.596;23.044;2022-12-07T08:39:28;9.47;;;4.60;;
15567;SDS011;7885;42.596;23.044;2022-12-07T08:41:55;11.80;;;4.50;;
15567;SDS011;7885;42.596;23.044;2022-12-07T08:44:22;10.20;;;5.50;;
15567;SDS011;7885;42.596;23.044;2022-12-07T08:46:49;6.93;;;5.20;;
15567;SDS011;7885;42.596;23.044;2022-12-07T08:49:23;6.93;;;5.23;;
15567;SDS011;7885;42.596;23.044;2022-12-07T08:51:56;8.63;;;7.10;;
15567;SDS011;7885;42.596;23.044;2022-12-07T08:54:23;9.10;;;5.37;;
15567;SDS011;7885;42.596;23.044;2022-12-07T08:56:50;7.50;;;4.70;;
15567;SDS011;7885;42.596;23.044;2022-12-07T08:59:18;6.60;;;4.10;;
15567;SDS011;7885;42.596;23.044;2022-12-07T09:01:46;4.27;;;3.87;;
15567;SDS011;7885;42.596;23.044;2022-12-07T09:04:13;10.03;;;4.43;;
15567;SDS011;7885;42.596;23.044;2022-12-07T09:06:42;8.37;;;5.73;;
15567;SDS011;7885;42.596;23.044;2022-12-07T09:09:09;9.50;;;4.30;;
15567;SDS011;7885;42.596;23.044;2022-12-07T09:11:37;9.27;;;5.07;;
15567;SDS011;7885;42.596;23.044;2022-12-07T09:14:04;10.70;;;4.77;;
15567;SDS011;7885;42.596;23.044;2022-12-07T09:16:31;6.33;;;4.60;;
15567;SDS011;7885;42.596;23.044;2022-12-07T09:18:58;6.77;;;4.10;;
15567;SDS011;7885;42.596;23.044;2022-12-07T09:21:25;4.50;;;4.10;;
15567;SDS011;7885;42.596;23.044;2022-12-07T09:23:53;5.53;;;4.07;;
15567;SDS011;7885;42.596;23.044;2022-12-07T09:26:20;6.27;;;4.40;;
15567;SDS011;7885;42.596;23.044;2022-12-07T09:28:47;12.70;;;6.10;;
15567;SDS011;7885;42.596;23.044;2022-12-07T09:31:14;9.80;;;4.80;;
15567;SDS011;7885;42.596;23.044;2022-12-07T09:33:40;6.67;;;3.97;;
15567;SDS011;7885;42.596;23.044;2022-12-07T09:36:07;9.23;;;4.20;;
15567;SDS011;7885;42.596;23.044;2022-12-07T09:38:35;8.33;;;4.57;;
15567;SDS011;7885;42.596;23.044;2022-12-07T09:41:05;6.87;;;4.73;;
15567;SDS011;7885;42.596;23.044;2022-12-07T09:43:33;6.70;;;3.70;;
15567;SDS011;7885;42.596;23.044;2022-12-07T09:46:02;7.60;;;4.37;;
15567;SDS011;7885;42.596;23.044;2022-12-07T09:48:31;7.07;;;4.47;;
15567;SDS011;7885;42.596;23.044;2022-12-07T09:51:02;8.73;;;4.23;;
15567;SDS011;7885;42.596;23.044;2022-12-07T09:53:39;6.13;;;4.10;;
15567;SDS011;7885;42.596;23.044;2022-12-07T09:56:09;6.73;;;4.20;;
15567;SDS011;7885;42.596;23.044;2022-12-07T09:58:39;6.57;;;4.00;;
15567;SDS011;7885;42.596;23.044;2022-12-07T10:01:09;5.83;;;3.97;;
15567;SDS011;7885;42.596;23.044;2022-12-07T10:03:39;7.33;;;3.93;;
15567;SDS011;7885;42.596;23.044;2022-12-07T10:06:09;4.67;;;3.30;;
15567;SDS011;7885;42.596;23.044;2022-12-07T10:08:38;5.57;;;3.67;;
15567;SDS011;7885;42.596;23.044;2022-12-07T10:11:06;7.53;;;3.63;;
15567;SDS011;7885;42.596;23.044;2022-12-07T10:13:37;5.47;;;3.87;;
15567;SDS011;7885;42.596;23.044;2022-12-07T10:16:06;7.80;;;4.10;;
15567;SDS011;7885;42.596;23.044;2022-12-07T10:18:50;7.70;;;4.30;;
15567;SDS011;7885;42.596;23.044;2022-12-07T10:21:18;5.50;;;3.30;;
15567;SDS011;7885;42.596;23.044;2022-12-07T10:23:58;7.33;;;4.63;;
15567;SDS011;7885;42.596;23.044;2022-12-07T10:26:27;5.57;;;4.30;;
15567;SDS011;7885;42.596;23.044;2022-12-07T10:29:00;6.80;;;3.87;;
15567;SDS011;7885;42.596;23.044;2022-12-07T10:31:42;5.97;;;3.97;;
15567;SDS011;7885;42.596;23.044;2022-12-07T10:34:15;8.80;;;4.30;;
15567;SDS011;7885;42.596;23.044;2022-12-07T10:43:32;7.53;;;3.50;;
15567;SDS011;7885;42.596;23.044;2022-12-07T10:46:10;7.63;;;3.50;;
15567;SDS011;7885;42.596;23.044;2022-12-07T10:48:50;6.00;;;3.43;;
15567;SDS011;7885;42.596;23.044;2022-12-07T10:51:26;3.00;;;2.70;;
15567;SDS011;7885;42.596;23.044;2022-12-07T10:53:58;5.90;;;3.50;;
15567;SDS011;7885;42.596;23.044;2022-12-07T10:59:53;4.30;;;2.93;;
15567;SDS011;7885;42.596;23.044;2022-12-07T11:02:34;5.93;;;3.43;;
15567;SDS011;7885;42.596;23.044;2022-12-07T11:05:20;5.30;;;3.30;;
15567;SDS011;7885;42.596;23.044;2022-12-07T11:07:56;3.17;;;2.40;;
15567;SDS011;7885;42.596;23.044;2022-12-07T11:10:30;3.10;;;2.53;;
15567;SDS011;7885;42.596;23.044;2022-12-07T11:13:11;5.70;;;3.70;;
15567;SDS011;7885;42.596;23.044;2022-12-07T11:15:53;5.00;;;3.20;;
15567;SDS011;7885;42.596;23.044;2022-12-07T11:18:31;4.27;;;3.07;;
15567;SDS011;7885;42.596;23.044;2022-12-07T11:21:07;6.70;;;3.20;;
15567;SDS011;7885;42.596;23.044;2022-12-07T11:23:46;5.43;;;3.33;;
15567;SDS011;7885;42.596;23.044;2022-12-07T11:26:22;5.13;;;2.97;;
15567;SDS011;7885;42.596;23.044;2022-12-07T11:29:02;4.23;;;2.97;;
15567;SDS011;7885;42.596;23.044;2022-12-07T11:31:49;5.43;;;3.10;;
15567;SDS011;7885;42.596;23.044;2022-12-07T11:34:26;4.27;;;2.90;;
15567;SDS011;7885;42.596;23.044;2022-12-07T11:37:05;5.67;;;3.27;;
15567;SDS011;7885;42.596;23.044;2022-12-07T11:39:39;6.73;;;3.33;;
15567;SDS011;7885;42.596;23.044;2022-12-07T11:42:14;7.23;;;3.50;;
15567;SDS011;7885;42.596;23.044;2022-12-07T11:44:47;4.20;;;3.10;;
15567;SDS011;7885;42.596;23.044;2022-12-07T11:47:20;4.47;;;3.33;;
15567;SDS011;7885;42.596;23.044;2022-12-07T11:49:54;5.93;;;3.70;;
15567;SDS011;7885;42.596;23.044;2022-12-07T11:52:25;7.23;;;3.50;;
15567;SDS011;7885;42.596;23.044;2022-12-07T11:54:59;3.87;;;3.50;;
15567;SDS011;7885;42.596;23.044;2022-12-07T11:57:29;7.23;;;3.77;;
15567;SDS011;7885;42.596;23.044;2022-12-07T12:00:03;5.13;;;3.47;;
15567;SDS011;7885;42.596;23.044;2022-12-07T12:02:33;5.43;;;3.57;;
15567;SDS011;7885;42.596;23.044;2022-12-07T12:05:12;7.43;;;4.13;;
15567;SDS011;7885;42.596;23.044;2022-12-07T12:07:42;5.97;;;3.80;;
15567;SDS011;7885;42.596;23.044;2022-12-07T12:10:15;4.70;;;4.10;;
15567;SDS011;7885;42.596;23.044;2022-12-07T12:25:46;7.73;;;3.47;;
15567;SDS011;7885;42.596;23.044;2022-12-07T12:28:23;4.17;;;3.50;;
15567;SDS011;7885;42.596;23.044;2022-12-07T12:31:10;6.77;;;3.50;;
15567;SDS011;7885;42.596;23.044;2022-12-07T12:33:43;6.03;;;3.63;;
15567;SDS011;7885;42.596;23.044;2022-12-07T12:42:57;5.63;;;4.03;;
15567;SDS011;7885;42.596;23.044;2022-12-07T12:45:24;9.27;;;5.73;;
15567;SDS011;7885;42.596;23.044;2022-12-07T12:47:53;6.10;;;4.57;;
15567;SDS011;7885;42.596;23.044;2022-12-07T12:50:23;3.90;;;3.00;;
15567;SDS011;7885;42.596;23.044;2022-12-07T12:55:45;5.43;;;3.30;;
15567;SDS011;7885;42.596;23.044;2022-12-07T12:58:32;4.20;;;3.50;;
15567;SDS011;7885;42.596;23.044;2022-12-07T13:07:58;5.23;;;3.50;;
15567;SDS011;7885;42.596;23.044;2022-12-07T13:10:31;4.23;;;3.43;;
15567;SDS011;7885;42.596;23.044;2022-12-07T13:25:18;5.93;;;3.77;;
15567;SDS011;7885;42.596;23.044;2022-12-07T13:27:50;4.40;;;2.97;;
15567;SDS011;7885;42.596;23.044;2022-12-07T13:30:23;6.43;;;4.13;;
15567;SDS011;7885;42.596;23.044;2022-12-07T13:32:53;3.73;;;3.17;;
15567;SDS011;7885;42.596;23.044;2022-12-07T13:35:32;4.67;;;3.50;;
15567;SDS011;7885;42.596;23.044;2022-12-07T13:38:04;5.77;;;4.20;;
15567;SDS011;7885;42.596;23.044;2022-12-07T13:40:41;5.90;;;3.60;;
15567;SDS011;7885;42.596;23.044;2022-12-07T13:43:12;6.50;;;3.80;;
15567;SDS011;7885;42.596;23.044;2022-12-07T13:49:03;6.07;;;3.97;;
15567;SDS011;7885;42.596;23.044;2022-12-07T13:51:46;5.40;;;3.93;;
15567;SDS011;7885;42.596;23.044;2022-12-07T13:54:14;7.23;;;4.27;;
15567;SDS011;7885;42.596;23.044;2022-12-07T13:56:42;11.20;;;7.37;;
15567;SDS011;7885;42.596;23.044;2022-12-07T13:59:12;10.30;;;6.10;;
15567;SDS011;7885;42.596;23.044;2022-12-07T14:01:41;8.97;;;5.77;;
15567;SDS011;7885;42.596;23.044;2022-12-07T14:07:15;7.87;;;4.20;;
15567;SDS011;7885;42.596;23.044;2022-12-07T14:09:53;9.93;;;6.23;;
15567;SDS011;7885;42.596;23.044;2022-12-07T14:12:21;13.53;;;7.57;;
15567;SDS011;7885;42.596;23.044;2022-12-07T14:14:48;12.23;;;6.70;;
15567;SDS011;7885;42.596;23.044;2022-12-07T14:17:16;14.60;;;7.50;;
15567;SDS011;7885;42.596;23.044;2022-12-07T14:19:48;15.20;;;8.70;;
15567;SDS011;7885;42.596;23.044;2022-12-07T14:25:14;12.10;;;6.50;;
15567;SDS011;7885;42.596;23.044;2022-12-07T14:27:50;25.57;;;10.63;;
15567;SDS011;7885;42.596;23.044;2022-12-07T14:30:21;26.03;;;14.37;;
15567;SDS011;7885;42.596;23.044;2022-12-07T14:32:50;20.90;;;12.13;;
15567;SDS011;7885;42.596;23.044;2022-12-07T14:35:20;8.80;;;6.23;;
15567;SDS011;7885;42.596;23.044;2022-12-07T14:37:48;11.10;;;7.63;;
15567;SDS011;7885;42.596;23.044;2022-12-07T14:40:16;17.23;;;11.90;;
15567;SDS011;7885;42.596;23.044;2022-12-07T14:42:44;15.40;;;9.53;;
15567;SDS011;7885;42.596;23.044;2022-12-07T14:45:14;17.00;;;10.60;;
15567;SDS011;7885;42.596;23.044;2022-12-07T14:47:43;18.07;;;9.97;;
15567;SDS011;7885;42.596;23.044;2022-12-07T14:50:11;10.87;;;7.00;;
15567;SDS011;7885;42.596;23.044;2022-12-07T14:52:40;13.57;;;7.07;;
15567;SDS011;7885;42.596;23.044;2022-12-07T14:55:13;9.90;;;7.10;;
15567;SDS011;7885;42.596;23.044;2022-12-07T14:57:43;9.27;;;7.40;;
15567;SDS011;7885;42.596;23.044;2022-12-07T15:00:13;16.27;;;11.20;;
15567;SDS011;7885;42.596;23.044;2022-12-07T15:02:42;17.03;;;10.57;;
15567;SDS011;7885;42.596;23.044;2022-12-07T15:05:09;20.90;;;11.57;;
15567;SDS011;7885;42.596;23.044;2022-12-07T15:07:36;8.23;;;6.30;;
15567;SDS011;7885;42.596;23.044;2022-12-07T15:13:26;13.47;;;7.37;;
15567;SDS011;7885;42.596;23.044;2022-12-07T15:16:10;11.87;;;9.60;;
15567;SDS011;7885;42.596;23.044;2022-12-07T15:18:45;13.33;;;7.37;;
15567;SDS011;7885;42.596;23.044;2022-12-07T15:21:12;14.27;;;11.20;;
15567;SDS011;7885;42.596;23.044;2022-12-07T15:23:41;14.40;;;10.27;;
15567;SDS011;7885;42.596;23.044;2022-12-07T15:26:09;13.30;;;9.33;;
15567;SDS011;7885;42.596;23.044;2022-12-07T15:28:37;14.70;;;9.90;;
15567;SDS011;7885;42.596;23.044;2022-12-07T15:31:05;15.53;;;12.30;;
15567;SDS011;7885;42.596;23.044;2022-12-07T15:33:37;16.93;;;11.80;;
15567;SDS011;7885;42.596;23.044;2022-12-07T15:36:04;17.93;;;10.30;;
15567;SDS011;7885;42.596;23.044;2022-12-07T15:40:58;13.83;;;11.70;;
15567;SDS011;7885;42.596;23.044;2022-12-07T15:43:25;16.43;;;12.13;;
15567;SDS011;7885;42.596;23.044;2022-12-07T15:46:10;14.73;;;9.73;;
15567;SDS011;7885;42.596;23.044;2022-12-07T15:48:37;13.80;;;9.10;;
15567;SDS011;7885;42.596;23.044;2022-12-07T15:51:04;16.10;;;10.37;;
15567;SDS011;7885;42.596;23.044;2022-12-07T15:53:32;13.77;;;10.67;;
15567;SDS011;7885;42.596;23.044;2022-12-07T15:55:59;17.17;;;12.53;;
15567;SDS011;7885;42.596;23.044;2022-12-07T15:58:26;16.40;;;10.33;;
15567;SDS011;7885;42.596;23.044;2022-12-07T16:00:53;14.73;;;10.63;;
15567;SDS011;7885;42.596;23.044;2022-12-07T16:03:21;15.07;;;10.20;;
15567;SDS011;7885;42.596;23.044;2022-12-07T16:05:48;14.50;;;11.03;;
15567;SDS011;7885;42.596;23.044;2022-12-07T16:08:15;23.63;;;14.97;;
15567;SDS011;7885;42.596;23.044;2022-12-07T16:10:42;18.50;;;13.30;;